Terminal Aerodrome Forecast
Issued by NWS

Home | Current Version | Previous Version | Graphics & Text | Print | Product List | Glossary On
Versions: 1 2 3 4 5 6 7 8 9 10 11 12 13
837
FTUS42 KMHX 241734
TAFPGV
TAF
KPGV 241734Z 2418/2518 23011KT P6SM VCTS BKN040CB
     FM250200 21007KT P6SM SCT250
     FM251200 25006KT P6SM BKN250
      AMD LTD TO CLD VIS AND WIND=

USA.gov is the U.S. government's official web portal to all federal, state and local government web resources and services.